sensor_id;sensor_type;location;lat;lon;timestamp;temperature;humidity
65374;SHT31;52070;53.760;9.678;2023-03-11T00:00:16;0.31;94.00
65374;SHT31;52070;53.760;9.678;2023-03-11T00:02:43;0.28;93.94
65374;SHT31;52070;53.760;9.678;2023-03-11T00:05:13;0.26;93.93
65374;SHT31;52070;53.760;9.678;2023-03-11T00:07:41;0.25;93.92
65374;SHT31;52070;53.760;9.678;2023-03-11T00:10:13;0.28;93.90
65374;SHT31;52070;53.760;9.678;2023-03-11T00:12:41;0.28;93.92
65374;SHT31;52070;53.760;9.678;2023-03-11T00:15:09;0.28;93.86
65374;SHT31;52070;53.760;9.678;2023-03-11T00:17:37;0.28;93.81
65374;SHT31;52070;53.760;9.678;2023-03-11T00:20:06;0.24;93.81
65374;SHT31;52070;53.760;9.678;2023-03-11T00:22:34;0.25;93.81
65374;SHT31;52070;53.760;9.678;2023-03-11T00:25:01;0.25;93.75
65374;SHT31;52070;53.760;9.678;2023-03-11T00:27:28;0.26;93.76
65374;SHT31;52070;53.760;9.678;2023-03-11T00:29:55;0.22;93.68
65374;SHT31;52070;53.760;9.678;2023-03-11T00:32:22;0.22;93.69
65374;SHT31;52070;53.760;9.678;2023-03-11T00:34:50;0.21;93.64
65374;SHT31;52070;53.760;9.678;2023-03-11T00:37:17;0.24;93.63
65374;SHT31;52070;53.760;9.678;2023-03-11T00:39:44;0.19;93.60
65374;SHT31;52070;53.760;9.678;2023-03-11T00:42:11;0.14;93.56
65374;SHT31;52070;53.760;9.678;2023-03-11T00:44:38;0.12;93.52
65374;SHT31;52070;53.760;9.678;2023-03-11T00:47:05;0.15;93.50
65374;SHT31;52070;53.760;9.678;2023-03-11T00:49:33;0.11;93.51
65374;SHT31;52070;53.760;9.678;2023-03-11T00:52:03;0.09;93.47
65374;SHT31;52070;53.760;9.678;2023-03-11T00:54:30;0.08;93.47
65374;SHT31;52070;53.760;9.678;2023-03-11T00:56:57;0.07;93.44
65374;SHT31;52070;53.760;9.678;2023-03-11T00:59:24;-0.02;93.43
65374;SHT31;52070;53.760;9.678;2023-03-11T01:01:51;-0.05;93.43
65374;SHT31;52070;53.760;9.678;2023-03-11T01:04:18;-0.05;93.43
65374;SHT31;52070;53.760;9.678;2023-03-11T01:06:45;-0.06;93.43
65374;SHT31;52070;53.760;9.678;2023-03-11T01:09:13;-0.12;93.42
65374;SHT31;52070;53.760;9.678;2023-03-11T01:11:40;-0.09;93.45
65374;SHT31;52070;53.760;9.678;2023-03-11T01:14:08;-0.13;93.43
65374;SHT31;52070;53.760;9.678;2023-03-11T01:16:35;-0.17;93.39
65374;SHT31;52070;53.760;9.678;2023-03-11T01:19:02;-0.17;93.40
65374;SHT31;52070;53.760;9.678;2023-03-11T01:21:29;-0.22;93.40
65374;SHT31;52070;53.760;9.678;2023-03-11T01:23:56;-0.24;93.40
65374;SHT31;52070;53.760;9.678;2023-03-11T01:26:25;-0.27;93.38
65374;SHT31;52070;53.760;9.678;2023-03-11T01:28:52;-0.24;93.38
65374;SHT31;52070;53.760;9.678;2023-03-11T01:31:19;-0.29;93.38
65374;SHT31;52070;53.760;9.678;2023-03-11T01:33:47;-0.29;93.39
65374;SHT31;52070;53.760;9.678;2023-03-11T01:36:14;-0.27;93.38
65374;SHT31;52070;53.760;9.678;2023-03-11T01:38:41;-0.34;93.39
65374;SHT31;52070;53.760;9.678;2023-03-11T01:41:10;-0.36;93.34
65374;SHT31;52070;53.760;9.678;2023-03-11T01:43:51;-0.34;93.35
65374;SHT31;52070;53.760;9.678;2023-03-11T01:46:22;-0.38;93.33
65374;SHT31;52070;53.760;9.678;2023-03-11T01:48:51;-0.44;93.33
65374;SHT31;52070;53.760;9.678;2023-03-11T01:51:22;-0.47;93.32
65374;SHT31;52070;53.760;9.678;2023-03-11T01:53:51;-0.50;93.31
65374;SHT31;52070;53.760;9.678;2023-03-11T01:56:25;-0.53;93.31
65374;SHT31;52070;53.760;9.678;2023-03-11T01:58:56;-0.56;93.30
65374;SHT31;52070;53.760;9.678;2023-03-11T02:01:23;-0.58;93.35
65374;SHT31;52070;53.760;9.678;2023-03-11T02:03:51;-0.61;93.34
65374;SHT31;52070;53.760;9.678;2023-03-11T02:06:22;-0.63;93.38
65374;SHT31;52070;53.760;9.678;2023-03-11T02:08:49;-0.66;93.37
65374;SHT31;52070;53.760;9.678;2023-03-11T02:11:19;-0.67;93.40
65374;SHT31;52070;53.760;9.678;2023-03-11T02:13:47;-0.71;93.40
65374;SHT31;52070;53.760;9.678;2023-03-11T02:16:16;-0.74;93.41
65374;SHT31;52070;53.760;9.678;2023-03-11T02:18:44;-0.74;93.37
65374;SHT31;52070;53.760;9.678;2023-03-11T02:21:22;-0.80;93.39
65374;SHT31;52070;53.760;9.678;2023-03-11T02:23:55;-0.83;93.38
65374;SHT31;52070;53.760;9.678;2023-03-11T02:26:28;-0.89;93.38
65374;SHT31;52070;53.760;9.678;2023-03-11T02:28:59;-0.89;93.42
65374;SHT31;52070;53.760;9.678;2023-03-11T02:31:28;-0.92;93.43
65374;SHT31;52070;53.760;9.678;2023-03-11T02:33:56;-0.92;93.42
65374;SHT31;52070;53.760;9.678;2023-03-11T02:36:33;-0.91;93.45
65374;SHT31;52070;53.760;9.678;2023-03-11T02:39:01;-0.89;93.48
65374;SHT31;52070;53.760;9.678;2023-03-11T02:41:32;-0.91;93.49
65374;SHT31;52070;53.760;9.678;2023-03-11T02:44:02;-0.94;93.51
65374;SHT31;52070;53.760;9.678;2023-03-11T02:46:30;-0.85;93.47
65374;SHT31;52070;53.760;9.678;2023-03-11T02:48:58;-0.87;93.53
65374;SHT31;52070;53.760;9.678;2023-03-11T02:51:25;-0.85;93.51
65374;SHT31;52070;53.760;9.678;2023-03-11T02:53:56;-0.84;93.53
65374;SHT31;52070;53.760;9.678;2023-03-11T02:56:24;-0.80;93.57
65374;SHT31;52070;53.760;9.678;2023-03-11T02:58:51;-0.84;93.56
65374;SHT31;52070;53.760;9.678;2023-03-11T03:01:19;-0.88;93.56
65374;SHT31;52070;53.760;9.678;2023-03-11T03:03:46;-0.91;93.49
65374;SHT31;52070;53.760;9.678;2023-03-11T03:06:14;-0.95;93.47
65374;SHT31;52070;53.760;9.678;2023-03-11T03:08:41;-0.98;93.44
65374;SHT31;52070;53.760;9.678;2023-03-11T03:11:08;-1.02;93.47
65374;SHT31;52070;53.760;9.678;2023-03-11T03:13:35;-1.05;93.45
65374;SHT31;52070;53.760;9.678;2023-03-11T03:16:02;-1.07;93.40
65374;SHT31;52070;53.760;9.678;2023-03-11T03:18:31;-1.11;93.40
65374;SHT31;52070;53.760;9.678;2023-03-11T03:20:58;-1.18;93.42
65374;SHT31;52070;53.760;9.678;2023-03-11T03:23:25;-1.21;93.44
65374;SHT31;52070;53.760;9.678;2023-03-11T03:25:52;-1.19;93.43
65374;SHT31;52070;53.760;9.678;2023-03-11T03:28:19;-1.24;93.41
65374;SHT31;52070;53.760;9.678;2023-03-11T03:30:46;-1.27;93.40
65374;SHT31;52070;53.760;9.678;2023-03-11T03:33:13;-1.27;93.41
65374;SHT31;52070;53.760;9.678;2023-03-11T03:35:43;-1.21;93.40
65374;SHT31;52070;53.760;9.678;2023-03-11T03:38:10;-1.24;93.48
65374;SHT31;52070;53.760;9.678;2023-03-11T03:40:38;-1.27;93.41
65374;SHT31;52070;53.760;9.678;2023-03-11T03:43:05;-1.27;93.42
65374;SHT31;52070;53.760;9.678;2023-03-11T03:45:32;-1.29;93.44
65374;SHT31;52070;53.760;9.678;2023-03-11T03:47:59;-1.32;93.44
65374;SHT31;52070;53.760;9.678;2023-03-11T03:50:26;-1.32;93.47
65374;SHT31;52070;53.760;9.678;2023-03-11T03:52:54;-1.28;93.45
65374;SHT31;52070;53.760;9.678;2023-03-11T03:55:21;-1.29;93.48
65374;SHT31;52070;53.760;9.678;2023-03-11T03:57:48;-1.34;93.49
65374;SHT31;52070;53.760;9.678;2023-03-11T04:00:16;-1.38;93.51
65374;SHT31;52070;53.760;9.678;2023-03-11T04:02:43;-1.42;93.53
65374;SHT31;52070;53.760;9.678;2023-03-11T04:05:10;-1.46;93.51
65374;SHT31;52070;53.760;9.678;2023-03-11T04:07:37;-1.56;93.51
65374;SHT31;52070;53.760;9.678;2023-03-11T04:10:06;-1.64;93.55
65374;SHT31;52070;53.760;9.678;2023-03-11T04:12:33;-1.63;93.62
65374;SHT31;52070;53.760;9.678;2023-03-11T04:15:00;-1.64;93.63
65374;SHT31;52070;53.760;9.678;2023-03-11T04:17:27;-1.66;93.67
65374;SHT31;52070;53.760;9.678;2023-03-11T04:19:54;-1.66;93.73
65374;SHT31;52070;53.760;9.678;2023-03-11T04:22:21;-1.69;93.77
65374;SHT31;52070;53.760;9.678;2023-03-11T04:24:48;-1.72;93.75
65374;SHT31;52070;53.760;9.678;2023-03-11T04:27:17;-1.74;93.81
65374;SHT31;52070;53.760;9.678;2023-03-11T04:29:44;-1.80;93.84
65374;SHT31;52070;53.760;9.678;2023-03-11T04:32:11;-1.80;93.86
65374;SHT31;52070;53.760;9.678;2023-03-11T04:34:38;-1.80;93.87
65374;SHT31;52070;53.760;9.678;2023-03-11T04:37:05;-1.83;93.88
65374;SHT31;52070;53.760;9.678;2023-03-11T04:39:32;-1.87;93.90
65374;SHT31;52070;53.760;9.678;2023-03-11T04:41:59;-1.89;93.94
65374;SHT31;52070;53.760;9.678;2023-03-11T04:44:28;-1.90;93.93
65374;SHT31;52070;53.760;9.678;2023-03-11T04:46:55;-1.89;93.93
65374;SHT31;52070;53.760;9.678;2023-03-11T04:49:22;-1.90;93.99
65374;SHT31;52070;53.760;9.678;2023-03-11T04:51:49;-1.94;93.96
65374;SHT31;52070;53.760;9.678;2023-03-11T04:54:16;-1.93;93.96
65374;SHT31;52070;53.760;9.678;2023-03-11T04:56:43;-1.94;93.95
65374;SHT31;52070;53.760;9.678;2023-03-11T04:59:10;-1.94;93.99
65374;SHT31;52070;53.760;9.678;2023-03-11T05:01:38;-1.93;93.98
65374;SHT31;52070;53.760;9.678;2023-03-11T05:04:05;-1.98;93.98
65374;SHT31;52070;53.760;9.678;2023-03-11T05:06:32;-1.98;94.01
65374;SHT31;52070;53.760;9.678;2023-03-11T05:08:59;-2.01;93.96
65374;SHT31;52070;53.760;9.678;2023-03-11T05:11:26;-2.03;93.96
65374;SHT31;52070;53.760;9.678;2023-03-11T05:13:53;-2.00;93.94
65374;SHT31;52070;53.760;9.678;2023-03-11T05:16:21;-2.03;93.98
65374;SHT31;52070;53.760;9.678;2023-03-11T05:18:49;-2.07;93.97
65374;SHT31;52070;53.760;9.678;2023-03-11T05:21:16;-2.10;93.90
65374;SHT31;52070;53.760;9.678;2023-03-11T05:23:43;-2.11;93.93
65374;SHT31;52070;53.760;9.678;2023-03-11T05:26:10;-2.14;93.93
65374;SHT31;52070;53.760;9.678;2023-03-11T05:28:37;-2.13;93.91
65374;SHT31;52070;53.760;9.678;2023-03-11T05:31:07;-2.14;93.89
65374;SHT31;52070;53.760;9.678;2023-03-11T05:33:34;-2.13;93.89
65374;SHT31;52070;53.760;9.678;2023-03-11T05:36:08;-2.14;93.85
65374;SHT31;52070;53.760;9.678;2023-03-11T05:38:35;-2.17;93.87
65374;SHT31;52070;53.760;9.678;2023-03-11T05:41:03;-2.21;93.86
65374;SHT31;52070;53.760;9.678;2023-03-11T05:43:30;-2.21;93.85
65374;SHT31;52070;53.760;9.678;2023-03-11T05:45:57;-2.24;93.83
65374;SHT31;52070;53.760;9.678;2023-03-11T05:48:24;-2.24;93.86
65374;SHT31;52070;53.760;9.678;2023-03-11T05:50:52;-2.27;93.82
65374;SHT31;52070;53.760;9.678;2023-03-11T05:53:20;-2.26;93.83
65374;SHT31;52070;53.760;9.678;2023-03-11T05:55:54;-2.28;93.84
65374;SHT31;52070;53.760;9.678;2023-03-11T05:58:21;-2.27;93.84
65374;SHT31;52070;53.760;9.678;2023-03-11T06:00:48;-2.30;93.84
65374;SHT31;52070;53.760;9.678;2023-03-11T06:03:15;-2.33;93.83
65374;SHT31;52070;53.760;9.678;2023-03-11T06:05:46;-2.35;93.83
65374;SHT31;52070;53.760;9.678;2023-03-11T06:08:13;-2.30;93.82
65374;SHT31;52070;53.760;9.678;2023-03-11T06:10:42;-2.27;93.80
65374;SHT31;52070;53.760;9.678;2023-03-11T06:13:09;-2.28;93.82
65374;SHT31;52070;53.760;9.678;2023-03-11T06:15:36;-2.26;93.78
65374;SHT31;52070;53.760;9.678;2023-03-11T06:18:03;-2.26;93.75
65374;SHT31;52070;53.760;9.678;2023-03-11T06:20:31;-2.26;93.77
65374;SHT31;52070;53.760;9.678;2023-03-11T06:22:58;-2.23;93.77
65374;SHT31;52070;53.760;9.678;2023-03-11T06:25:25;-2.24;93.80
65374;SHT31;52070;53.760;9.678;2023-03-11T06:27:53;-2.21;93.78
65374;SHT31;52070;53.760;9.678;2023-03-11T06:30:21;-2.21;93.76
65374;SHT31;52070;53.760;9.678;2023-03-11T06:32:49;-2.20;93.75
65374;SHT31;52070;53.760;9.678;2023-03-11T06:35:16;-2.17;93.75
65374;SHT31;52070;53.760;9.678;2023-03-11T06:37:43;-2.08;93.80
65374;SHT31;52070;53.760;9.678;2023-03-11T06:40:11;-2.04;93.77
65374;SHT31;52070;53.760;9.678;2023-03-11T06:42:39;-2.01;93.76
65374;SHT31;52070;53.760;9.678;2023-03-11T06:45:08;-2.01;93.73
65374;SHT31;52070;53.760;9.678;2023-03-11T06:47:35;-2.00;93.74
65374;SHT31;52070;53.760;9.678;2023-03-11T06:50:02;-1.97;93.74
65374;SHT31;52070;53.760;9.678;2023-03-11T06:52:32;-1.98;93.72
65374;SHT31;52070;53.760;9.678;2023-03-11T06:54:59;-1.90;93.68
65374;SHT31;52070;53.760;9.678;2023-03-11T06:57:26;-1.87;93.69
65374;SHT31;52070;53.760;9.678;2023-03-11T06:59:54;-1.84;93.70
65374;SHT31;52070;53.760;9.678;2023-03-11T07:02:22;-1.80;93.67
65374;SHT31;52070;53.760;9.678;2023-03-11T07:04:50;-1.79;93.67
65374;SHT31;52070;53.760;9.678;2023-03-11T07:07:17;-1.76;93.66
65374;SHT31;52070;53.760;9.678;2023-03-11T07:09:44;-1.72;93.68
65374;SHT31;52070;53.760;9.678;2023-03-11T07:12:12;-1.63;93.69
65374;SHT31;52070;53.760;9.678;2023-03-11T07:14:39;-1.62;93.75
65374;SHT31;52070;53.760;9.678;2023-03-11T07:17:06;-1.58;93.76
65374;SHT31;52070;53.760;9.678;2023-03-11T07:19:35;-1.52;93.78
65374;SHT31;52070;53.760;9.678;2023-03-11T07:22:02;-1.46;93.78
65374;SHT31;52070;53.760;9.678;2023-03-11T07:24:29;-1.45;93.82
65374;SHT31;52070;53.760;9.678;2023-03-11T07:26:56;-1.39;93.80
65374;SHT31;52070;53.760;9.678;2023-03-11T07:29:23;-1.36;93.83
65374;SHT31;52070;53.760;9.678;2023-03-11T07:31:50;-1.36;93.80
65374;SHT31;52070;53.760;9.678;2023-03-11T07:34:17;-1.32;93.81
65374;SHT31;52070;53.760;9.678;2023-03-11T07:36:45;-1.25;93.80
65374;SHT31;52070;53.760;9.678;2023-03-11T07:39:13;-1.19;93.76
65374;SHT31;52070;53.760;9.678;2023-03-11T07:41:41;-1.13;93.72
65374;SHT31;52070;53.760;9.678;2023-03-11T07:44:10;-1.05;93.70
65374;SHT31;52070;53.760;9.678;2023-03-11T07:46:38;-1.04;93.63
65374;SHT31;52070;53.760;9.678;2023-03-11T07:49:05;-1.01;93.55
65374;SHT31;52070;53.760;9.678;2023-03-11T07:51:34;-0.97;93.42
65374;SHT31;52070;53.760;9.678;2023-03-11T07:54:03;-0.94;93.33
65374;SHT31;52070;53.760;9.678;2023-03-11T07:56:32;-0.91;93.26
65374;SHT31;52070;53.760;9.678;2023-03-11T07:59:01;-0.85;93.15
65374;SHT31;52070;53.760;9.678;2023-03-11T08:01:29;-0.80;93.08
65374;SHT31;52070;53.760;9.678;2023-03-11T08:04:02;-0.70;93.03
65374;SHT31;52070;53.760;9.678;2023-03-11T08:06:31;-0.68;92.95
65374;SHT31;52070;53.760;9.678;2023-03-11T08:09:00;-0.64;92.84
65374;SHT31;52070;53.760;9.678;2023-03-11T08:11:28;-0.60;92.73
65374;SHT31;52070;53.760;9.678;2023-03-11T08:13:56;-0.57;92.62
65374;SHT31;52070;53.760;9.678;2023-03-11T08:16:23;-0.52;92.53
65374;SHT31;52070;53.760;9.678;2023-03-11T08:18:51;-0.50;92.30
65374;SHT31;52070;53.760;9.678;2023-03-11T08:21:20;-0.43;92.07
65374;SHT31;52070;53.760;9.678;2023-03-11T08:23:47;-0.40;91.67
65374;SHT31;52070;53.760;9.678;2023-03-11T08:26:16;-0.34;91.46
65374;SHT31;52070;53.760;9.678;2023-03-11T08:28:45;-0.26;91.34
65374;SHT31;52070;53.760;9.678;2023-03-11T08:31:13;-0.24;91.25
65374;SHT31;52070;53.760;9.678;2023-03-11T08:33:41;-0.17;91.14
65374;SHT31;52070;53.760;9.678;2023-03-11T08:36:08;-0.15;90.76
65374;SHT31;52070;53.760;9.678;2023-03-11T08:38:35;-0.12;90.42
65374;SHT31;52070;53.760;9.678;2023-03-11T08:41:02;-0.10;89.98
65374;SHT31;52070;53.760;9.678;2023-03-11T08:43:30;-0.06;89.61
65374;SHT31;52070;53.760;9.678;2023-03-11T08:46:00;-0.03;89.28
65374;SHT31;52070;53.760;9.678;2023-03-11T08:48:27;0.02;88.94
65374;SHT31;52070;53.760;9.678;2023-03-11T08:50:55;0.11;88.58
65374;SHT31;52070;53.760;9.678;2023-03-11T08:53:22;0.12;88.04
65374;SHT31;52070;53.760;9.678;2023-03-11T08:55:49;0.18;88.09
65374;SHT31;52070;53.760;9.678;2023-03-11T08:58:16;0.22;87.84
65374;SHT31;52070;53.760;9.678;2023-03-11T09:00:44;0.28;87.79
65374;SHT31;52070;53.760;9.678;2023-03-11T09:03:12;0.35;87.45
65374;SHT31;52070;53.760;9.678;2023-03-11T09:05:39;0.45;87.27
65374;SHT31;52070;53.760;9.678;2023-03-11T09:08:06;0.45;86.92
65374;SHT31;52070;53.760;9.678;2023-03-11T09:10:33;0.49;86.32
65374;SHT31;52070;53.760;9.678;2023-03-11T09:13:00;0.50;85.69
65374;SHT31;52070;53.760;9.678;2023-03-11T09:15:27;0.58;85.16
65374;SHT31;52070;53.760;9.678;2023-03-11T09:17:54;0.65;85.43
65374;SHT31;52070;53.760;9.678;2023-03-11T09:20:23;0.75;85.17
65374;SHT31;52070;53.760;9.678;2023-03-11T09:22:50;0.79;83.67
65374;SHT31;52070;53.760;9.678;2023-03-11T09:25:17;0.92;83.24
65374;SHT31;52070;53.760;9.678;2023-03-11T09:27:44;0.97;82.99
65374;SHT31;52070;53.760;9.678;2023-03-11T09:30:12;1.05;84.08
65374;SHT31;52070;53.760;9.678;2023-03-11T09:32:39;1.13;84.79
65374;SHT31;52070;53.760;9.678;2023-03-11T09:35:06;1.26;85.37
65374;SHT31;52070;53.760;9.678;2023-03-11T09:37:34;1.38;85.37
65374;SHT31;52070;53.760;9.678;2023-03-11T09:40:02;1.59;85.56
65374;SHT31;52070;53.760;9.678;2023-03-11T09:42:34;1.74;85.20
65374;SHT31;52070;53.760;9.678;2023-03-11T09:45:07;1.91;84.95
65374;SHT31;52070;53.760;9.678;2023-03-11T09:47:37;1.99;83.93
65374;SHT31;52070;53.760;9.678;2023-03-11T09:50:23;2.10;83.15
65374;SHT31;52070;53.760;9.678;2023-03-11T09:53:08;2.32;82.50
65374;SHT31;52070;53.760;9.678;2023-03-11T09:55:43;2.63;82.44
65374;SHT31;52070;53.760;9.678;2023-03-11T09:58:14;2.73;81.00
65374;SHT31;52070;53.760;9.678;2023-03-11T10:00:43;3.00;81.09
65374;SHT31;52070;53.760;9.678;2023-03-11T10:03:24;2.88;79.80
65374;SHT31;52070;53.760;9.678;2023-03-11T10:05:56;2.95;79.07
65374;SHT31;52070;53.760;9.678;2023-03-11T10:08:29;3.24;79.98
65374;SHT31;52070;53.760;9.678;2023-03-11T10:11:02;3.79;81.84
65374;SHT31;52070;53.760;9.678;2023-03-11T10:13:34;3.79;78.11
65374;SHT31;52070;53.760;9.678;2023-03-11T10:16:13;3.62;76.87
65374;SHT31;52070;53.760;9.678;2023-03-11T10:18:51;3.45;76.28
65374;SHT31;52070;53.760;9.678;2023-03-11T10:21:33;3.40;76.23
65374;SHT31;52070;53.760;9.678;2023-03-11T10:24:17;3.69;77.14
65374;SHT31;52070;53.760;9.678;2023-03-11T10:26:48;3.93;77.10
65374;SHT31;52070;53.760;9.678;2023-03-11T10:29:20;4.37;76.52
65374;SHT31;52070;53.760;9.678;2023-03-11T10:31:54;4.65;75.60
65374;SHT31;52070;53.760;9.678;2023-03-11T10:34:25;5.09;76.14
65374;SHT31;52070;53.760;9.678;2023-03-11T10:37:01;4.91;73.11
65374;SHT31;52070;53.760;9.678;2023-03-11T10:39:32;5.05;74.94
65374;SHT31;52070;53.760;9.678;2023-03-11T10:42:00;5.69;76.88
65374;SHT31;52070;53.760;9.678;2023-03-11T10:44:31;5.37;73.21
65374;SHT31;52070;53.760;9.678;2023-03-11T10:47:00;5.06;73.28
65374;SHT31;52070;53.760;9.678;2023-03-11T10:49:28;4.84;73.58
65374;SHT31;52070;53.760;9.678;2023-03-11T10:51:55;4.79;74.53
65374;SHT31;52070;53.760;9.678;2023-03-11T10:54:26;5.29;74.96
65374;SHT31;52070;53.760;9.678;2023-03-11T10:56:57;5.42;73.27
65374;SHT31;52070;53.760;9.678;2023-03-11T10:59:27;5.59;72.94
65374;SHT31;52070;53.760;9.678;2023-03-11T11:01:56;5.74;72.59
65374;SHT31;52070;53.760;9.678;2023-03-11T11:04:30;5.54;70.73
65374;SHT31;52070;53.760;9.678;2023-03-11T11:07:19;5.93;71.70
65374;SHT31;52070;53.760;9.678;2023-03-11T11:09:46;5.77;69.73
65374;SHT31;52070;53.760;9.678;2023-03-11T11:12:15;6.24;71.51
65374;SHT31;52070;53.760;9.678;2023-03-11T11:14:45;6.52;69.56
65374;SHT31;52070;53.760;9.678;2023-03-11T11:17:16;6.11;67.44
65374;SHT31;52070;53.760;9.678;2023-03-11T11:19:44;6.49;70.89
65374;SHT31;52070;53.760;9.678;2023-03-11T11:22:15;6.83;68.97
65374;SHT31;52070;53.760;9.678;2023-03-11T11:24:44;7.01;67.13
65374;SHT31;52070;53.760;9.678;2023-03-11T11:27:17;6.95;68.51
65374;SHT31;52070;53.760;9.678;2023-03-11T11:29:45;6.79;65.99
65374;SHT31;52070;53.760;9.678;2023-03-11T11:32:19;6.52;65.60
65374;SHT31;52070;53.760;9.678;2023-03-11T11:34:55;6.86;69.34
65374;SHT31;52070;53.760;9.678;2023-03-11T11:37:24;6.49;65.91
65374;SHT31;52070;53.760;9.678;2023-03-11T11:39:59;6.66;66.28
65374;SHT31;52070;53.760;9.678;2023-03-11T11:42:33;6.29;65.92
65374;SHT31;52070;53.760;9.678;2023-03-11T11:45:03;6.73;66.40
65374;SHT31;52070;53.760;9.678;2023-03-11T11:47:33;6.77;63.27
65374;SHT31;52070;53.760;9.678;2023-03-11T11:50:03;6.59;61.82
65374;SHT31;52070;53.760;9.678;2023-03-11T11:52:34;6.57;62.30
65374;SHT31;52070;53.760;9.678;2023-03-11T11:55:06;6.76;61.06
65374;SHT31;52070;53.760;9.678;2023-03-11T11:57:35;6.69;63.88
65374;SHT31;52070;53.760;9.678;2023-03-11T12:00:05;5.89;62.93
65374;SHT31;52070;53.760;9.678;2023-03-11T12:02:45;5.47;63.62
65374;SHT31;52070;53.760;9.678;2023-03-11T12:05:22;5.15;64.41
65374;SHT31;52070;53.760;9.678;2023-03-11T12:08:01;5.57;64.12
65374;SHT31;52070;53.760;9.678;2023-03-11T12:10:32;5.74;62.78
65374;SHT31;52070;53.760;9.678;2023-03-11T12:13:25;5.87;62.55
65374;SHT31;52070;53.760;9.678;2023-03-11T12:15:59;5.71;62.51
65374;SHT31;52070;53.760;9.678;2023-03-11T12:18:33;6.12;61.23
65374;SHT31;52070;53.760;9.678;2023-03-11T12:21:11;5.86;61.45
65374;SHT31;52070;53.760;9.678;2023-03-11T12:23:49;5.91;63.36
65374;SHT31;52070;53.760;9.678;2023-03-11T12:26:22;5.98;61.30
65374;SHT31;52070;53.760;9.678;2023-03-11T12:28:54;6.20;64.02
65374;SHT31;52070;53.760;9.678;2023-03-11T12:31:23;6.31;60.94
65374;SHT31;52070;53.760;9.678;2023-03-11T12:33:55;6.01;58.11
65374;SHT31;52070;53.760;9.678;2023-03-11T12:36:28;5.70;60.36
65374;SHT31;52070;53.760;9.678;2023-03-11T12:38:56;5.36;61.52
65374;SHT31;52070;53.760;9.678;2023-03-11T12:41:32;5.27;62.07
65374;SHT31;52070;53.760;9.678;2023-03-11T12:44:19;5.75;63.65
65374;SHT31;52070;53.760;9.678;2023-03-11T12:53:01;5.66;60.80
65374;SHT31;52070;53.760;9.678;2023-03-11T12:55:31;5.53;62.70
65374;SHT31;52070;53.760;9.678;2023-03-11T12:58:31;5.91;63.24
65374;SHT31;52070;53.760;9.678;2023-03-11T13:04:20;5.56;61.63
65374;SHT31;52070;53.760;9.678;2023-03-11T13:07:03;5.66;62.48
65374;SHT31;52070;53.760;9.678;2023-03-11T13:09:33;5.60;61.66
65374;SHT31;52070;53.760;9.678;2023-03-11T13:12:01;6.17;59.81
65374;SHT31;52070;53.760;9.678;2023-03-11T13:14:29;6.12;60.19
65374;SHT31;52070;53.760;9.678;2023-03-11T13:17:23;6.10;63.02
65374;SHT31;52070;53.760;9.678;2023-03-11T13:19:53;6.18;63.53
65374;SHT31;52070;53.760;9.678;2023-03-11T13:22:41;5.77;60.32
65374;SHT31;52070;53.760;9.678;2023-03-11T13:25:29;5.63;61.57
65374;SHT31;52070;53.760;9.678;2023-03-11T13:28:06;6.04;62.47
65374;SHT31;52070;53.760;9.678;2023-03-11T13:30:40;6.20;60.25
65374;SHT31;52070;53.760;9.678;2023-03-11T13:33:24;5.64;60.92
65374;SHT31;52070;53.760;9.678;2023-03-11T13:36:14;5.50;64.33
65374;SHT31;52070;53.760;9.678;2023-03-11T13:38:59;5.39;64.11
65374;SHT31;52070;53.760;9.678;2023-03-11T13:41:30;5.22;63.27
65374;SHT31;52070;53.760;9.678;2023-03-11T13:44:02;5.09;64.77
65374;SHT31;52070;53.760;9.678;2023-03-11T13:46:36;5.11;65.92
65374;SHT31;52070;53.760;9.678;2023-03-11T13:49:08;5.02;65.17
65374;SHT31;52070;53.760;9.678;2023-03-11T13:51:42;4.99;65.09
65374;SHT31;52070;53.760;9.678;2023-03-11T13:54:25;4.96;66.06
65374;SHT31;52070;53.760;9.678;2023-03-11T13:56:57;4.93;66.03
65374;SHT31;52070;53.760;9.678;2023-03-11T13:59:27;4.86;65.75
65374;SHT31;52070;53.760;9.678;2023-03-11T14:01:56;4.85;66.00
65374;SHT31;52070;53.760;9.678;2023-03-11T14:04:28;5.00;66.46
65374;SHT31;52070;53.760;9.678;2023-03-11T14:06:55;5.06;66.18
65374;SHT31;52070;53.760;9.678;2023-03-11T14:09:24;5.67;66.62
65374;SHT31;52070;53.760;9.678;2023-03-11T14:11:52;5.73;65.54
65374;SHT31;52070;53.760;9.678;2023-03-11T14:14:41;5.98;64.01
65374;SHT31;52070;53.760;9.678;2023-03-11T14:17:12;5.81;64.53
65374;SHT31;52070;53.760;9.678;2023-03-11T14:19:41;5.46;63.44
65374;SHT31;52070;53.760;9.678;2023-03-11T14:22:09;5.35;64.77
65374;SHT31;52070;53.760;9.678;2023-03-11T14:24:36;5.22;63.49
65374;SHT31;52070;53.760;9.678;2023-03-11T14:27:07;5.16;64.55
65374;SHT31;52070;53.760;9.678;2023-03-11T14:29:36;5.09;64.69
65374;SHT31;52070;53.760;9.678;2023-03-11T14:32:25;5.16;65.35
65374;SHT31;52070;53.760;9.678;2023-03-11T14:34:53;5.13;65.07
65374;SHT31;52070;53.760;9.678;2023-03-11T14:37:33;5.08;64.95
65374;SHT31;52070;53.760;9.678;2023-03-11T14:40:01;4.99;63.74
65374;SHT31;52070;53.760;9.678;2023-03-11T14:42:32;4.98;65.26
65374;SHT31;52070;53.760;9.678;2023-03-11T14:45:03;4.93;65.23
65374;SHT31;52070;53.760;9.678;2023-03-11T14:47:34;5.36;66.04
65374;SHT31;52070;53.760;9.678;2023-03-11T14:50:09;5.87;64.82
65374;SHT31;52070;53.760;9.678;2023-03-11T14:52:41;6.11;64.06
65374;SHT31;52070;53.760;9.678;2023-03-11T14:55:13;5.93;62.24
65374;SHT31;52070;53.760;9.678;2023-03-11T14:57:43;5.50;63.27
65374;SHT31;52070;53.760;9.678;2023-03-11T15:00:14;5.46;65.71
65374;SHT31;52070;53.760;9.678;2023-03-11T15:02:52;5.36;65.35
65374;SHT31;52070;53.760;9.678;2023-03-11T15:05:26;5.16;65.24
65374;SHT31;52070;53.760;9.678;2023-03-11T15:07:58;5.12;65.77
65374;SHT31;52070;53.760;9.678;2023-03-11T15:10:26;5.06;66.04
65374;SHT31;52070;53.760;9.678;2023-03-11T15:13:04;5.05;66.35
65374;SHT31;52070;53.760;9.678;2023-03-11T15:15:32;5.08;66.97
65374;SHT31;52070;53.760;9.678;2023-03-11T15:18:00;4.43;71.79
65374;SHT31;52070;53.760;9.678;2023-03-11T15:20:30;3.25;77.35
65374;SHT31;52070;53.760;9.678;2023-03-11T15:22:59;2.57;81.16
65374;SHT31;52070;53.760;9.678;2023-03-11T15:25:29;2.34;83.17
65374;SHT31;52070;53.760;9.678;2023-03-11T15:27:56;2.12;84.34
65374;SHT31;52070;53.760;9.678;2023-03-11T15:30:25;2.25;85.16
65374;SHT31;52070;53.760;9.678;2023-03-11T15:32:53;2.26;85.91
65374;SHT31;52070;53.760;9.678;2023-03-11T15:35:22;2.28;86.38
65374;SHT31;52070;53.760;9.678;2023-03-11T15:38:10;2.34;86.43
65374;SHT31;52070;53.760;9.678;2023-03-11T15:40:38;2.46;86.21
65374;SHT31;52070;53.760;9.678;2023-03-11T15:43:22;2.53;86.15
65374;SHT31;52070;53.760;9.678;2023-03-11T15:45:50;2.70;84.81
65374;SHT31;52070;53.760;9.678;2023-03-11T15:48:20;2.97;82.14
65374;SHT31;52070;53.760;9.678;2023-03-11T15:50:48;3.43;80.08
65374;SHT31;52070;53.760;9.678;2023-03-11T15:53:17;3.82;80.10
65374;SHT31;52070;53.760;9.678;2023-03-11T15:55:46;4.00;78.91
65374;SHT31;52070;53.760;9.678;2023-03-11T15:58:14;4.06;78.57
65374;SHT31;52070;53.760;9.678;2023-03-11T16:00:46;3.90;78.45
65374;SHT31;52070;53.760;9.678;2023-03-11T16:03:14;4.00;79.00